createdAt,value
2019-02-15T00:02:10.231Z,99.90
2019-02-15T00:04:40.163Z,99.90
2019-02-15T00:07:10.211Z,99.90
2019-02-15T00:09:40.108Z,99.90
2019-02-15T00:12:10.149Z,99.90
2019-02-15T00:14:47.093Z,99.90
2019-02-15T00:17:26.686Z,99.90
2019-02-15T00:19:57.088Z,99.90
2019-02-15T00:22:26.910Z,99.90
2019-02-15T00:24:56.792Z,99.90
2019-02-15T00:27:26.599Z,99.90
2019-02-15T00:29:56.353Z,99.90
2019-02-15T00:32:26.238Z,99.90
2019-02-15T00:34:56.616Z,99.90
2019-02-15T00:37:26.577Z,99.90
2019-02-15T00:39:56.310Z,99.90
2019-02-15T00:42:26.647Z,99.90
2019-02-15T00:44:56.675Z,99.90
2019-02-15T00:47:39.694Z,99.90
2019-02-15T00:50:40.890Z,99.90
2019-02-15T00:53:29.904Z,99.90
2019-02-15T00:56:20.385Z,99.90
2019-02-15T00:59:12.314Z,99.90
2019-02-15T01:02:10.356Z,99.90
2019-02-15T01:05:02.130Z,99.90
2019-02-15T01:07:54.210Z,99.90
2019-02-15T01:10:49.285Z,99.90
2019-02-15T01:13:21.696Z,99.90
2019-02-15T01:15:51.582Z,99.90
2019-02-15T01:18:21.538Z,99.90
2019-02-15T01:20:51.241Z,99.90
2019-02-15T01:23:22.125Z,99.90
2019-02-15T01:26:14.035Z,99.90
2019-02-15T01:28:52.932Z,99.90
2019-02-15T01:31:50.567Z,99.90
2019-02-15T01:34:42.496Z,99.90
2019-02-15T01:37:43.921Z,99.90
2019-02-15T01:40:21.132Z,99.90
2019-02-15T01:43:00.702Z,99.90
2019-02-15T01:45:45.907Z,99.90
2019-02-15T01:48:16.108Z,99.90
2019-02-15T01:50:46.144Z,99.90
2019-02-15T01:53:16.034Z,99.90
2019-02-15T01:55:45.893Z,99.90
2019-02-15T01:58:15.905Z,99.90
2019-02-15T02:00:45.918Z,99.90
2019-02-15T02:03:15.877Z,99.90
2019-02-15T02:05:45.781Z,99.90
2019-02-15T02:08:19.140Z,99.90
2019-02-15T02:10:49.159Z,99.90
2019-02-15T02:13:19.011Z,99.90
2019-02-15T02:15:48.957Z,99.90
2019-02-15T02:18:18.831Z,99.90
2019-02-15T02:20:48.720Z,99.90
2019-02-15T02:23:18.601Z,99.90
2019-02-15T02:25:48.538Z,99.90
2019-02-15T02:28:19.521Z,99.90
2019-02-15T02:30:49.388Z,99.90
2019-02-15T02:33:19.201Z,99.90
2019-02-15T02:35:49.117Z,99.90
2019-02-15T02:38:19.039Z,99.90
2019-02-15T02:40:48.998Z,99.90
2019-02-15T02:43:19.061Z,99.90
2019-02-15T02:45:48.782Z,99.90
2019-02-15T02:48:18.808Z,99.90
2019-02-15T02:50:48.641Z,99.90
2019-02-15T02:53:18.587Z,99.90
2019-02-15T02:55:48.525Z,99.90
2019-02-15T02:58:18.496Z,99.90
2019-02-15T03:00:48.247Z,99.90
2019-02-15T03:03:19.093Z,99.90
2019-02-15T03:05:49.017Z,99.90
2019-02-15T03:08:18.909Z,99.90
2019-02-15T03:10:48.837Z,99.90
2019-02-15T03:13:18.814Z,99.90
2019-02-15T03:15:48.653Z,99.90
2019-02-15T03:18:18.492Z,99.90
2019-02-15T03:20:48.336Z,99.90
2019-02-15T03:23:18.022Z,99.90
2019-02-15T03:25:47.910Z,99.90
2019-02-15T03:28:17.723Z,99.90
2019-02-15T03:30:47.650Z,99.90
2019-02-15T03:33:17.483Z,99.90
2019-02-15T03:35:56.423Z,99.90
2019-02-15T03:38:40.172Z,99.90
2019-02-15T03:41:26.141Z,99.90
2019-02-15T03:43:56.388Z,99.90
2019-02-15T03:46:26.417Z,99.90
2019-02-15T03:48:56.692Z,99.90
2019-02-15T03:51:26.538Z,99.90
2019-02-15T03:53:56.325Z,99.90
2019-02-15T03:56:26.224Z,99.90
2019-02-15T03:58:56.289Z,99.90
2019-02-15T04:01:26.214Z,99.90
2019-02-15T04:03:56.104Z,99.90
2019-02-15T04:06:25.995Z,99.90
2019-02-15T04:08:55.760Z,99.90
2019-02-15T04:11:25.603Z,99.90
2019-02-15T04:13:55.449Z,99.90
2019-02-15T04:16:25.685Z,99.90
2019-02-15T04:18:55.764Z,99.90
2019-02-15T04:21:25.782Z,99.90
2019-02-15T04:23:55.637Z,99.90
2019-02-15T04:26:25.494Z,99.90
2019-02-15T04:28:55.526Z,99.90
2019-02-15T04:31:25.462Z,99.90
2019-02-15T04:33:55.340Z,99.90
2019-02-15T04:36:25.290Z,99.90
2019-02-15T04:38:55.200Z,99.90
2019-02-15T04:41:25.085Z,99.90
2019-02-15T04:43:55.023Z,99.90
2019-02-15T04:46:24.869Z,99.90
2019-02-15T04:48:54.804Z,99.90
2019-02-15T04:51:24.747Z,99.90
2019-02-15T04:53:54.640Z,99.90
2019-02-15T04:56:24.543Z,99.90
2019-02-15T04:58:54.589Z,99.90
2019-02-15T05:01:26.911Z,99.90
2019-02-15T05:03:57.840Z,99.90
2019-02-15T05:06:27.775Z,99.90
2019-02-15T05:08:57.700Z,99.90
2019-02-15T05:11:27.590Z,99.90
2019-02-15T05:13:57.425Z,99.90
2019-02-15T05:16:27.568Z,99.90
2019-02-15T05:18:57.462Z,99.90
2019-02-15T05:21:27.683Z,99.90
2019-02-15T05:23:57.516Z,99.90
2019-02-15T05:26:27.432Z,99.90
2019-02-15T05:28:57.189Z,99.90
2019-02-15T05:31:27.185Z,99.90
2019-02-15T05:33:57.195Z,99.90
2019-02-15T05:36:28.165Z,99.90
2019-02-15T05:38:58.078Z,99.90
2019-02-15T05:41:27.944Z,99.90
2019-02-15T05:43:57.824Z,99.90
2019-02-15T05:46:27.615Z,99.90
2019-02-15T05:48:57.530Z,99.90
2019-02-15T05:51:27.333Z,99.90
2019-02-15T05:53:57.324Z,99.90
2019-02-15T05:56:27.259Z,99.90
2019-02-15T05:58:57.235Z,99.90
2019-02-15T06:01:28.240Z,99.90
2019-02-15T06:03:58.327Z,99.90
2019-02-15T06:06:28.127Z,99.90
2019-02-15T06:08:58.663Z,99.90
2019-02-15T06:11:28.672Z,99.90
2019-02-15T06:13:58.841Z,99.90
2019-02-15T06:16:28.613Z,99.90
2019-02-15T06:18:58.623Z,99.90
2019-02-15T06:21:28.667Z,99.90
2019-02-15T06:23:58.616Z,99.90
2019-02-15T06:26:28.563Z,99.90
2019-02-15T06:28:58.853Z,99.90
2019-02-15T06:31:29.175Z,99.90
2019-02-15T06:33:58.970Z,99.90
2019-02-15T06:36:33.349Z,99.90
2019-02-15T06:39:04.507Z,99.90
2019-02-15T06:41:34.435Z,99.90
2019-02-15T06:44:04.302Z,99.90
2019-02-15T06:46:34.185Z,99.90
2019-02-15T06:49:04.204Z,99.90
2019-02-15T06:51:34.958Z,99.90
2019-02-15T06:54:04.833Z,99.90
2019-02-15T06:56:34.841Z,99.90
2019-02-15T06:59:33.555Z,99.90
2019-02-15T07:02:14.827Z,99.90
2019-02-15T07:05:04.301Z,99.90
2019-02-15T07:07:34.237Z,99.90
2019-02-15T07:10:04.391Z,99.90
2019-02-15T07:12:34.317Z,99.90
2019-02-15T07:15:04.640Z,99.90
2019-02-15T07:17:34.794Z,99.90
2019-02-15T07:20:05.675Z,99.90
2019-02-15T07:22:35.616Z,99.90
2019-02-15T07:25:06.524Z,99.90
2019-02-15T07:27:36.632Z,99.90
2019-02-15T07:30:07.634Z,99.90
2019-02-15T07:32:39.545Z,99.90
2019-02-15T07:35:10.682Z,99.90
2019-02-15T07:37:41.291Z,99.90
2019-02-15T07:40:12.742Z,99.90
2019-02-15T07:42:42.935Z,99.90
2019-02-15T07:45:12.801Z,99.90
2019-02-15T07:47:48.207Z,99.90
2019-02-15T07:50:18.168Z,98.40
2019-02-15T07:52:48.255Z,99.90
2019-02-15T07:55:18.194Z,99.90
2019-02-15T07:57:48.060Z,99.20
2019-02-15T08:00:17.965Z,95.30
2019-02-15T08:02:48.090Z,90.60
2019-02-15T08:05:18.479Z,87.90
2019-02-15T08:07:48.733Z,80.50
2019-02-15T08:10:18.646Z,82.60
2019-02-15T08:12:49.092Z,76.50
2019-02-15T08:15:19.589Z,73.40
2019-02-15T08:17:50.180Z,71.20
2019-02-15T08:20:20.562Z,70.40
2019-02-15T08:22:50.690Z,70.90
2019-02-15T08:25:20.860Z,69.70
2019-02-15T08:27:51.119Z,68.00
2019-02-15T08:30:22.185Z,64.80
2019-02-15T08:32:52.104Z,61.70
2019-02-15T08:35:23.194Z,61.00
2019-02-15T08:37:53.524Z,58.10
2019-02-15T08:40:23.842Z,55.40
2019-02-15T08:42:58.965Z,53.80
2019-02-15T08:45:29.728Z,53.10
2019-02-15T08:48:00.637Z,53.20
2019-02-15T08:50:30.358Z,52.70
2019-02-15T08:53:00.181Z,51.30
2019-02-15T08:55:30.966Z,52.40
2019-02-15T08:58:00.809Z,50.80
2019-02-15T09:00:30.707Z,50.20
2019-02-15T09:03:00.628Z,48.60
2019-02-15T09:05:30.551Z,48.00
2019-02-15T09:08:00.368Z,49.40
2019-02-15T09:10:30.410Z,46.10
2019-02-15T09:13:00.364Z,46.50
2019-02-15T09:15:30.129Z,46.50
2019-02-15T09:18:00.661Z,46.20
2019-02-15T09:20:30.439Z,46.10
2019-02-15T09:23:00.359Z,47.00
2019-02-15T09:25:30.149Z,47.50
2019-02-15T09:28:19.055Z,47.40
2019-02-15T09:30:53.824Z,48.40
2019-02-15T09:33:23.801Z,47.90
2019-02-15T09:35:53.713Z,48.20
2019-02-15T09:38:23.642Z,47.80
2019-02-15T09:40:53.656Z,47.80
2019-02-15T09:43:23.384Z,47.70
2019-02-15T09:45:53.204Z,47.20
2019-02-15T09:48:22.974Z,47.80
2019-02-15T09:50:52.861Z,47.90
2019-02-15T09:53:28.017Z,47.70
2019-02-15T09:55:58.012Z,47.90
2019-02-15T09:58:28.772Z,47.60
2019-02-15T10:00:58.722Z,47.50
2019-02-15T10:03:28.466Z,47.30
2019-02-15T10:05:58.365Z,47.70
2019-02-15T10:08:29.096Z,47.30
2019-02-15T10:10:59.035Z,47.10
2019-02-15T10:13:28.765Z,46.60
2019-02-15T10:15:58.686Z,47.30
2019-02-15T10:18:28.568Z,46.60
2019-02-15T10:20:58.864Z,47.10
2019-02-15T10:23:28.699Z,46.90
2019-02-15T10:25:58.499Z,46.20
2019-02-15T10:28:28.299Z,45.60
2019-02-15T10:30:58.081Z,46.00
2019-02-15T10:33:28.347Z,47.30
2019-02-15T10:35:58.241Z,47.30
2019-02-15T10:38:28.345Z,47.00
2019-02-15T10:40:58.146Z,48.40
2019-02-15T10:43:28.142Z,48.00
2019-02-15T10:45:57.902Z,48.50
2019-02-15T10:48:27.750Z,48.70
2019-02-15T10:50:57.600Z,50.10
2019-02-15T10:53:27.605Z,51.10
2019-02-15T10:55:57.551Z,53.30
2019-02-15T10:58:28.549Z,54.60
2019-02-15T11:00:58.399Z,55.90
2019-02-15T11:03:28.500Z,56.70
2019-02-15T11:05:59.259Z,57.60
2019-02-15T11:08:29.489Z,58.90
2019-02-15T11:10:59.460Z,59.10
2019-02-15T11:13:29.479Z,59.90
2019-02-15T11:15:59.364Z,60.40
2019-02-15T11:18:29.112Z,60.90
2019-02-15T11:20:58.934Z,61.80
2019-02-15T11:23:28.951Z,62.20
2019-02-15T11:25:59.717Z,62.50
2019-02-15T11:28:29.651Z,64.10
2019-02-15T11:30:59.422Z,62.90
2019-02-15T11:33:29.210Z,63.80
2019-02-15T11:35:59.101Z,63.20
2019-02-15T11:38:28.890Z,64.50
2019-02-15T11:40:59.683Z,64.60
2019-02-15T11:43:29.487Z,64.60
2019-02-15T11:45:59.353Z,64.10
2019-02-15T11:48:29.540Z,64.00
2019-02-15T11:50:59.536Z,64.40
2019-02-15T11:53:29.497Z,65.30
2019-02-15T11:55:59.472Z,64.20
2019-02-15T11:58:30.195Z,64.30
2019-02-15T12:00:59.976Z,63.50
2019-02-15T12:03:29.904Z,64.40
2019-02-15T12:05:59.837Z,64.70
2019-02-15T12:08:29.742Z,63.00
2019-02-15T12:10:59.685Z,64.00
2019-02-15T12:13:29.645Z,60.90
2019-02-15T12:15:59.459Z,59.50
2019-02-15T12:18:29.368Z,58.20
2019-02-15T12:20:59.160Z,58.20
2019-02-15T12:23:29.158Z,58.10
2019-02-15T12:25:58.908Z,58.40
2019-02-15T12:28:30.628Z,58.50
2019-02-15T12:31:00.334Z,58.80
2019-02-15T12:33:30.201Z,58.30
2019-02-15T12:36:00.757Z,59.20
2019-02-15T12:38:30.496Z,56.80
2019-02-15T12:41:00.340Z,57.40
2019-02-15T12:43:30.281Z,57.20
2019-02-15T12:46:00.244Z,57.20
2019-02-15T12:48:30.048Z,57.40
2019-02-15T12:50:59.907Z,56.60
2019-02-15T12:53:29.983Z,57.40
2019-02-15T12:55:59.963Z,57.10
2019-02-15T12:58:29.946Z,56.70
2019-02-15T13:00:59.925Z,55.50
2019-02-15T13:03:30.256Z,56.20
2019-02-15T13:06:00.142Z,56.00
2019-02-15T13:08:31.213Z,55.70
2019-02-15T13:11:01.331Z,55.70
2019-02-15T13:13:31.300Z,55.00
2019-02-15T13:16:01.409Z,54.70
2019-02-15T13:18:31.296Z,54.30
2019-02-15T13:21:01.290Z,54.80
2019-02-15T13:23:31.448Z,55.20
2019-02-15T13:26:08.191Z,55.50
2019-02-15T13:28:32.814Z,55.30
2019-02-15T13:31:02.620Z,54.90
2019-02-15T13:33:32.450Z,54.70
2019-02-15T13:36:02.279Z,56.00
2019-02-15T13:38:32.229Z,56.00
2019-02-15T13:41:02.077Z,55.10
2019-02-15T13:43:32.362Z,55.20
2019-02-15T13:46:02.709Z,55.10
2019-02-15T13:48:32.532Z,55.10
2019-02-15T13:51:02.293Z,54.60
2019-02-15T13:53:34.699Z,54.30
2019-02-15T13:56:04.534Z,54.40
2019-02-15T13:58:34.323Z,53.40
2019-02-15T14:01:04.290Z,53.20
2019-02-15T14:03:34.040Z,53.70
2019-02-15T14:06:04.258Z,53.40
2019-02-15T14:08:34.010Z,53.20
2019-02-15T14:11:04.229Z,53.30
2019-02-15T14:13:34.288Z,53.50
2019-02-15T14:16:04.134Z,52.60
2019-02-15T14:18:34.535Z,52.60
2019-02-15T14:21:04.353Z,52.10
2019-02-15T14:23:34.249Z,52.20
2019-02-15T14:26:04.064Z,52.40
2019-02-15T14:28:34.007Z,52.50
2019-02-15T14:31:03.949Z,52.80
2019-02-15T14:33:33.935Z,52.90
2019-02-15T14:36:03.846Z,52.70
2019-02-15T14:38:33.747Z,52.80
2019-02-15T14:41:03.717Z,53.10
2019-02-15T14:43:33.480Z,54.30
2019-02-15T14:46:03.891Z,53.80
2019-02-15T14:48:33.820Z,54.10
2019-02-15T14:51:03.870Z,53.80
2019-02-15T14:53:33.742Z,53.30
2019-02-15T14:56:03.531Z,53.80
2019-02-15T14:58:33.413Z,53.30
2019-02-15T15:01:03.370Z,53.40
2019-02-15T15:03:34.325Z,53.00
2019-02-15T15:06:04.124Z,52.70
2019-02-15T15:08:33.871Z,52.30
2019-02-15T15:11:03.854Z,52.40
2019-02-15T15:13:33.789Z,52.60
2019-02-15T15:16:03.649Z,52.30
2019-02-15T15:18:33.821Z,52.30
2019-02-15T15:21:03.752Z,51.80
2019-02-15T15:23:34.004Z,51.90
2019-02-15T15:26:11.563Z,52.00
2019-02-15T15:28:35.846Z,52.10
2019-02-15T15:31:05.573Z,52.30
2019-02-15T15:33:35.689Z,52.30
2019-02-15T15:36:05.567Z,52.20
2019-02-15T15:38:35.769Z,52.30
2019-02-15T15:41:05.614Z,52.70
2019-02-15T15:43:35.595Z,53.10
2019-02-15T15:46:05.520Z,53.60
2019-02-15T15:48:35.339Z,53.50
2019-02-15T15:51:14.281Z,53.90
2019-02-15T15:53:44.872Z,54.40
2019-02-15T15:56:14.957Z,54.70
2019-02-15T15:58:47.419Z,54.80
2019-02-15T16:01:17.458Z,54.70
2019-02-15T16:03:47.675Z,54.20
2019-02-15T16:06:24.296Z,54.10
2019-02-15T16:08:49.509Z,53.80
2019-02-15T16:11:21.605Z,54.30
2019-02-15T16:13:53.893Z,54.00
2019-02-15T16:16:24.462Z,54.10
2019-02-15T16:18:54.213Z,54.60
2019-02-15T16:21:24.201Z,54.70
2019-02-15T16:23:54.309Z,55.60
2019-02-15T16:26:24.406Z,55.00
2019-02-15T16:28:54.373Z,55.60
2019-02-15T16:31:24.451Z,56.20
2019-02-15T16:33:54.550Z,56.40
2019-02-15T16:36:24.962Z,56.30
2019-02-15T16:38:55.984Z,55.90
2019-02-15T16:41:28.938Z,55.30
2019-02-15T16:43:59.693Z,55.30
2019-02-15T16:46:29.553Z,56.20
2019-02-15T16:48:59.377Z,56.90
2019-02-15T16:51:29.275Z,57.30
2019-02-15T16:53:59.673Z,57.40
2019-02-15T16:56:32.116Z,57.70
2019-02-15T16:59:02.077Z,57.80
2019-02-15T17:01:32.102Z,58.10
2019-02-15T17:04:06.954Z,58.40
2019-02-15T17:06:38.168Z,59.00
2019-02-15T17:09:16.789Z,59.90
2019-02-15T17:11:47.296Z,60.50
2019-02-15T17:14:21.656Z,61.20
2019-02-15T17:16:56.053Z,61.10
2019-02-15T17:19:25.858Z,60.00
2019-02-15T17:21:57.836Z,61.10
2019-02-15T17:24:31.477Z,61.10
2019-02-15T17:27:01.708Z,62.00
2019-02-15T17:29:32.272Z,63.30
2019-02-15T17:32:02.264Z,64.70
2019-02-15T17:34:35.308Z,66.10
2019-02-15T17:37:07.380Z,68.20
2019-02-15T17:39:37.564Z,69.70
2019-02-15T17:42:07.508Z,70.90
2019-02-15T17:44:39.349Z,71.30
2019-02-15T17:47:09.304Z,73.00
2019-02-15T17:49:39.121Z,72.40
2019-02-15T17:52:09.576Z,72.00
2019-02-15T17:54:39.466Z,71.30
2019-02-15T17:57:09.566Z,70.00
2019-02-15T17:59:40.219Z,68.70
2019-02-15T18:02:11.537Z,67.90
2019-02-15T18:04:42.546Z,67.30
2019-02-15T18:07:12.471Z,66.50
2019-02-15T18:09:42.547Z,66.40
2019-02-15T18:12:12.454Z,65.70
2019-02-15T18:14:42.431Z,65.60
2019-02-15T18:17:12.882Z,65.50
2019-02-15T18:19:47.276Z,66.00
2019-02-15T18:22:16.009Z,66.10
2019-02-15T18:24:45.949Z,65.70
2019-02-15T18:27:15.950Z,66.00
2019-02-15T18:29:45.858Z,66.00
2019-02-15T18:32:15.764Z,66.00
2019-02-15T18:34:50.187Z,66.00
2019-02-15T18:37:20.380Z,66.30
2019-02-15T18:39:51.946Z,66.70
2019-02-15T18:42:25.749Z,66.50
2019-02-15T18:44:55.548Z,66.70
2019-02-15T18:47:25.445Z,67.10
2019-02-15T18:49:55.541Z,67.60
2019-02-15T18:52:25.860Z,67.60
2019-02-15T18:54:57.738Z,68.00
2019-02-15T18:57:28.683Z,68.70
2019-02-15T18:59:58.776Z,68.80
2019-02-15T19:02:28.730Z,68.70
2019-02-15T19:04:58.596Z,68.70
2019-02-15T19:07:28.693Z,68.50
2019-02-15T19:10:01.097Z,68.80
2019-02-15T19:12:30.964Z,68.80
2019-02-15T19:15:03.918Z,69.10
2019-02-15T19:17:36.849Z,68.60
2019-02-15T19:20:08.055Z,68.30
2019-02-15T19:22:38.170Z,68.10
2019-02-15T19:25:10.084Z,68.50
2019-02-15T19:27:42.682Z,69.30
2019-02-15T19:30:15.503Z,69.20
2019-02-15T19:32:45.571Z,69.00
2019-02-15T19:35:16.984Z,68.60
2019-02-15T19:37:47.153Z,67.30
2019-02-15T19:40:17.412Z,67.00
2019-02-15T19:42:49.045Z,66.50
2019-02-15T19:45:19.106Z,66.20
2019-02-15T19:47:49.236Z,66.50
2019-02-15T19:50:19.585Z,66.40
2019-02-15T19:52:49.740Z,66.30
2019-02-15T19:55:19.742Z,66.40
2019-02-15T19:57:49.941Z,66.10
2019-02-15T20:00:20.211Z,66.10
2019-02-15T20:02:53.217Z,66.60
2019-02-15T20:05:23.358Z,66.90
2019-02-15T20:07:53.720Z,67.10
2019-02-15T20:10:24.053Z,67.40
2019-02-15T20:12:55.012Z,68.00
2019-02-15T20:15:24.929Z,68.30
2019-02-15T20:17:54.746Z,68.10
2019-02-15T20:20:27.232Z,68.60
2019-02-15T20:22:57.376Z,69.10
2019-02-15T20:25:27.323Z,69.80
2019-02-15T20:27:57.208Z,69.60
2019-02-15T20:30:27.405Z,69.70
2019-02-15T20:32:57.478Z,70.50
2019-02-15T20:35:27.522Z,71.20
2019-02-15T20:37:57.385Z,70.50
2019-02-15T20:40:28.784Z,70.20
2019-02-15T20:42:59.072Z,69.90
2019-02-15T20:45:29.225Z,69.50
2019-02-15T20:47:59.206Z,70.10
2019-02-15T20:50:29.172Z,70.40
2019-02-15T20:52:58.919Z,70.40
2019-02-15T20:55:29.044Z,70.00
2019-02-15T20:57:58.983Z,70.40
2019-02-15T21:00:28.996Z,70.70
2019-02-15T21:02:59.383Z,71.60
2019-02-15T21:05:29.549Z,71.80
2019-02-15T21:07:59.614Z,72.10
2019-02-15T21:10:29.647Z,72.50
2019-02-15T21:12:59.620Z,72.70
2019-02-15T21:15:29.856Z,73.10
2019-02-15T21:18:03.005Z,73.90
2019-02-15T21:20:33.024Z,74.40
2019-02-15T21:23:03.087Z,74.10
2019-02-15T21:25:33.200Z,74.80
2019-02-15T21:28:03.511Z,75.50
2019-02-15T21:30:33.745Z,75.10
2019-02-15T21:33:03.921Z,75.60
2019-02-15T21:35:33.861Z,75.50
2019-02-15T21:38:04.025Z,76.40
2019-02-15T21:40:34.070Z,76.20
2019-02-15T21:43:15.942Z,76.80
2019-02-15T21:45:45.855Z,79.70
2019-02-15T21:48:15.952Z,77.30
2019-02-15T21:50:45.741Z,77.50
2019-02-15T21:53:15.608Z,77.90
2019-02-15T21:55:45.939Z,78.20
2019-02-15T21:58:15.983Z,79.60
2019-02-15T22:00:46.259Z,79.50
2019-02-15T22:03:16.887Z,79.20
2019-02-15T22:05:47.267Z,80.40
2019-02-15T22:08:17.498Z,80.50
2019-02-15T22:10:49.013Z,81.10
2019-02-15T22:13:20.172Z,81.50
2019-02-15T22:15:50.064Z,81.60
2019-02-15T22:18:20.288Z,82.50
2019-02-15T22:20:50.272Z,83.70
2019-02-15T22:23:23.212Z,85.50
2019-02-15T22:25:53.900Z,89.00
2019-02-15T22:28:23.823Z,91.40
2019-02-15T22:31:01.204Z,92.80
2019-02-15T22:33:31.918Z,94.50
2019-02-15T22:36:01.786Z,95.90
2019-02-15T22:38:31.614Z,97.50
2019-02-15T22:41:16.056Z,98.40
2019-02-15T22:43:46.868Z,99.30
2019-02-15T22:46:17.204Z,97.70
2019-02-15T22:48:47.330Z,98.90
2019-02-15T22:51:21.124Z,98.40
2019-02-15T22:53:51.672Z,97.20
2019-02-15T22:56:21.667Z,97.40
2019-02-15T22:58:54.926Z,97.10
2019-02-15T23:01:26.135Z,97.10
2019-02-15T23:03:57.553Z,97.00
2019-02-15T23:06:27.849Z,98.20
2019-02-15T23:08:58.711Z,99.20
2019-02-15T23:11:28.863Z,99.80
2019-02-15T23:13:59.131Z,99.90
2019-02-15T23:16:29.260Z,99.90
2019-02-15T23:18:59.472Z,99.90
2019-02-15T23:21:29.595Z,99.90
2019-02-15T23:24:00.932Z,99.90
2019-02-15T23:26:31.055Z,99.90
2019-02-15T23:29:02.386Z,99.90
2019-02-15T23:31:32.952Z,99.90
2019-02-15T23:34:02.808Z,99.90
2019-02-15T23:36:32.763Z,99.90
2019-02-15T23:39:03.453Z,99.90
2019-02-15T23:41:34.893Z,99.90
2019-02-15T23:44:05.088Z,99.90
2019-02-15T23:46:34.949Z,99.90
2019-02-15T23:49:04.936Z,99.90
2019-02-15T23:51:36.800Z,99.90
2019-02-15T23:54:06.704Z,99.90
2019-02-15T23:56:36.553Z,99.90
2019-02-15T23:59:06.466Z,99.90
